createdAt,value
2024-02-27T00:02:07.537Z,1.50
2024-02-27T00:04:33.984Z,1.68
2024-02-27T00:07:00.492Z,1.43
2024-02-27T00:09:27.089Z,1.62
2024-02-27T00:11:55.285Z,1.55
2024-02-27T00:14:21.779Z,1.64
2024-02-27T00:16:48.201Z,1.54
2024-02-27T00:19:14.777Z,1.44
2024-02-27T00:21:41.306Z,1.46
2024-02-27T00:24:07.899Z,1.52
2024-02-27T00:26:34.374Z,1.30
2024-02-27T00:29:00.733Z,1.29
2024-02-27T00:31:27.087Z,1.30
2024-02-27T00:33:53.606Z,1.28
2024-02-27T00:36:20.245Z,1.31
2024-02-27T00:38:46.680Z,1.28
2024-02-27T00:41:13.076Z,1.29
2024-02-27T00:43:39.540Z,1.08
2024-02-27T00:46:06.173Z,1.04
2024-02-27T00:48:32.926Z,1.00
2024-02-27T00:50:59.505Z,0.98
2024-02-27T00:53:27.892Z,1.08
2024-02-27T00:55:54.362Z,1.04
2024-02-27T00:58:24.356Z,1.21
2024-02-27T01:00:50.909Z,1.24
2024-02-27T01:03:17.454Z,1.16
2024-02-27T01:05:44.132Z,1.05
2024-02-27T01:08:10.658Z,1.18
2024-02-27T01:10:37.138Z,1.23
2024-02-27T01:13:03.986Z,1.24
2024-02-27T01:15:30.545Z,1.24
2024-02-27T01:17:57.215Z,1.26
2024-02-27T01:20:23.730Z,1.26
2024-02-27T01:22:50.086Z,1.07
2024-02-27T01:25:16.498Z,1.02
2024-02-27T01:27:45.881Z,0.95
2024-02-27T01:30:12.484Z,0.94
2024-02-27T01:32:39.089Z,1.05
2024-02-27T01:35:05.918Z,0.97
2024-02-27T01:37:32.430Z,0.86
2024-02-27T01:39:58.945Z,0.95
2024-02-27T01:42:28.205Z,0.85
2024-02-27T01:44:57.736Z,0.88
2024-02-27T01:47:24.701Z,0.92
2024-02-27T01:49:51.773Z,0.94
2024-02-27T01:52:19.839Z,0.73
2024-02-27T01:54:49.380Z,0.65
2024-02-27T01:57:17.052Z,0.88
2024-02-27T01:59:43.766Z,0.82
2024-02-27T02:02:10.517Z,0.79
2024-02-27T02:04:37.113Z,0.81
2024-02-27T02:07:04.257Z,0.61
2024-02-27T02:09:31.586Z,0.68
2024-02-27T02:11:58.317Z,0.81
2024-02-27T02:14:30.892Z,0.72
2024-02-27T02:16:57.594Z,0.96
2024-02-27T02:19:24.318Z,0.91
2024-02-27T02:21:51.009Z,0.87
2024-02-27T02:24:19.899Z,0.84
2024-02-27T02:26:49.923Z,0.72
2024-02-27T02:29:16.342Z,0.69
2024-02-27T02:31:42.695Z,0.80
2024-02-27T02:34:09.293Z,0.69
2024-02-27T02:36:35.969Z,0.75
2024-02-27T02:39:04.745Z,0.76
2024-02-27T02:41:31.298Z,0.78
2024-02-27T02:43:57.853Z,0.82
2024-02-27T02:46:24.345Z,0.83
2024-02-27T02:48:50.870Z,0.79
2024-02-27T02:51:17.424Z,0.71
2024-02-27T02:53:43.925Z,0.76
2024-02-27T02:56:10.304Z,0.81
2024-02-27T02:58:36.905Z,0.71
2024-02-27T03:01:03.376Z,0.74
2024-02-27T03:03:29.831Z,0.79
2024-02-27T03:05:56.603Z,0.77
2024-02-27T03:08:23.175Z,0.69
2024-02-27T03:10:49.717Z,0.53
2024-02-27T03:13:16.298Z,0.70
2024-02-27T03:15:42.704Z,0.64
2024-02-27T03:18:09.275Z,0.76
2024-02-27T03:20:38.174Z,0.71
2024-02-27T03:23:04.713Z,0.71
2024-02-27T03:25:31.092Z,0.52
2024-02-27T03:27:57.547Z,0.72
2024-02-27T03:30:24.144Z,0.58
2024-02-27T03:32:50.698Z,0.73
2024-02-27T03:35:19.461Z,0.62
2024-02-27T03:37:45.949Z,0.64
2024-02-27T03:40:12.402Z,0.58
2024-02-27T03:42:44.463Z,0.61
2024-02-27T03:45:11.276Z,0.63
2024-02-27T03:47:38.039Z,0.59
2024-02-27T03:50:04.912Z,0.52
2024-02-27T03:52:31.292Z,0.54
2024-02-27T03:54:57.792Z,0.42
2024-02-27T03:57:24.262Z,0.32
2024-02-27T03:59:50.924Z,0.33
2024-02-27T04:02:17.292Z,0.37
2024-02-27T04:04:43.650Z,0.41
2024-02-27T04:07:10.266Z,0.44
2024-02-27T04:09:36.846Z,0.40
2024-02-27T04:12:03.596Z,0.46
2024-02-27T04:14:32.688Z,0.42
2024-02-27T04:16:59.200Z,0.48
2024-02-27T04:19:25.927Z,0.46
2024-02-27T04:21:52.675Z,0.42
2024-02-27T04:24:19.104Z,0.45
2024-02-27T04:26:45.695Z,0.31
2024-02-27T04:29:12.246Z,0.41
2024-02-27T04:31:38.634Z,0.53
2024-02-27T04:34:05.412Z,0.44
2024-02-27T04:36:32.128Z,0.35
2024-02-27T04:38:58.665Z,0.32
2024-02-27T04:41:25.138Z,0.25
2024-02-27T04:43:51.608Z,0.25
2024-02-27T04:46:18.175Z,0.31
2024-02-27T04:48:44.884Z,0.27
2024-02-27T04:51:11.729Z,0.39
2024-02-27T04:53:38.546Z,0.41
2024-02-27T04:56:05.468Z,0.53
2024-02-27T04:58:31.875Z,0.40
2024-02-27T05:00:58.455Z,0.30
2024-02-27T05:03:25.028Z,0.31
2024-02-27T05:05:53.888Z,0.30
2024-02-27T05:08:20.387Z,0.20
2024-02-27T05:10:47.033Z,0.17
2024-02-27T05:13:13.533Z,0.10
2024-02-27T05:15:40.143Z,0.05
2024-02-27T05:18:15.556Z,-0.07
2024-02-27T05:20:42.079Z,0.10
2024-02-27T05:23:08.566Z,0.01
2024-02-27T05:25:42.391Z,0.17
2024-02-27T05:28:08.920Z,0.13
2024-02-27T05:30:35.375Z,0.17
2024-02-27T05:33:02.247Z,0.01
2024-02-27T05:35:28.708Z,0.09
2024-02-27T05:37:55.284Z,0.10
2024-02-27T05:40:24.405Z,0.11
2024-02-27T05:42:50.879Z,0.12
2024-02-27T05:45:17.468Z,-0.01
2024-02-27T05:47:44.015Z,-0.01
2024-02-27T05:50:10.882Z,-0.02
2024-02-27T05:52:37.318Z,-0.13
2024-02-27T05:55:04.068Z,0.14
2024-02-27T05:57:30.497Z,0.20
2024-02-27T05:59:56.919Z,0.44
2024-02-27T06:02:23.568Z,0.47
2024-02-27T06:04:49.979Z,0.31
2024-02-27T06:07:16.765Z,0.40
2024-02-27T06:09:43.462Z,0.37
2024-02-27T06:12:10.250Z,0.34
2024-02-27T06:14:41.162Z,0.60
2024-02-27T06:17:07.890Z,0.60
2024-02-27T06:19:34.389Z,0.60
2024-02-27T06:22:02.699Z,0.82
2024-02-27T06:24:31.213Z,0.69
2024-02-27T06:26:57.620Z,0.53
2024-02-27T06:29:24.058Z,0.59
2024-02-27T06:31:50.469Z,0.67
2024-02-27T06:34:19.333Z,0.60
2024-02-27T06:36:45.834Z,0.69
2024-02-27T06:39:15.465Z,0.78
2024-02-27T06:41:41.973Z,0.83
2024-02-27T06:44:08.456Z,0.95
2024-02-27T06:46:35.037Z,0.83
2024-02-27T06:49:07.738Z,1.00
2024-02-27T06:51:41.465Z,0.92
2024-02-27T06:54:08.017Z,0.97
2024-02-27T06:56:34.696Z,1.08
2024-02-27T06:59:01.112Z,1.14
2024-02-27T07:01:36.498Z,1.18
2024-02-27T07:04:03.091Z,1.40
2024-02-27T07:06:31.073Z,1.48
2024-02-27T07:08:57.620Z,1.47
2024-02-27T07:11:24.113Z,1.63
2024-02-27T07:13:50.671Z,1.68
2024-02-27T07:16:17.197Z,1.69
2024-02-27T07:18:43.758Z,1.69
2024-02-27T07:21:10.421Z,1.88
2024-02-27T07:23:36.928Z,1.90
2024-02-27T07:26:03.631Z,1.87
2024-02-27T07:28:33.651Z,2.00
2024-02-27T07:31:00.923Z,2.00
2024-02-27T07:33:27.606Z,1.98
2024-02-27T07:35:54.046Z,2.07
2024-02-27T07:38:20.546Z,2.02
2024-02-27T07:40:46.982Z,2.06
2024-02-27T07:43:13.424Z,2.03
2024-02-27T07:45:39.843Z,2.31
2024-02-27T07:48:11.659Z,2.32
2024-02-27T07:50:38.161Z,2.36
2024-02-27T07:53:04.996Z,2.41
2024-02-27T07:55:31.422Z,2.41
2024-02-27T07:57:57.837Z,2.36
2024-02-27T08:00:26.560Z,2.36
2024-02-27T08:02:53.250Z,2.42
2024-02-27T08:05:22.867Z,2.33
2024-02-27T08:07:49.478Z,2.55
2024-02-27T08:10:16.127Z,2.64
2024-02-27T08:12:42.696Z,2.86
2024-02-27T08:15:09.570Z,2.83
2024-02-27T08:17:36.295Z,2.94
2024-02-27T08:20:05.253Z,2.92
2024-02-27T08:22:33.106Z,3.06
2024-02-27T08:24:59.548Z,3.10
2024-02-27T08:27:25.939Z,3.08
2024-02-27T08:29:52.375Z,3.16
2024-02-27T08:32:18.893Z,3.14
2024-02-27T08:34:45.384Z,3.40
2024-02-27T08:37:11.819Z,3.32
2024-02-27T08:39:41.025Z,3.46
2024-02-27T08:42:08.148Z,3.40
2024-02-27T08:44:34.554Z,3.49
2024-02-27T08:47:01.231Z,3.47
2024-02-27T08:49:27.908Z,3.60
2024-02-27T08:51:54.456Z,3.81
2024-02-27T08:54:23.844Z,3.65
2024-02-27T08:56:53.338Z,3.90
2024-02-27T08:59:19.802Z,4.03
2024-02-27T09:01:48.951Z,3.84
2024-02-27T09:04:18.767Z,3.99
2024-02-27T09:06:48.609Z,4.22
2024-02-27T09:09:15.175Z,4.01
2024-02-27T09:11:41.694Z,4.11
2024-02-27T09:14:08.252Z,4.03
2024-02-27T09:16:34.832Z,4.14
2024-02-27T09:19:01.478Z,4.08
2024-02-27T09:21:27.962Z,4.22
2024-02-27T09:23:54.476Z,4.16
2024-02-27T09:26:24.175Z,4.23
2024-02-27T09:28:51.871Z,4.25
2024-02-27T09:31:24.071Z,4.46
2024-02-27T09:33:57.860Z,4.30
2024-02-27T09:36:24.452Z,4.56
2024-02-27T09:38:50.873Z,4.48
2024-02-27T09:41:37.059Z,4.64
2024-02-27T09:44:04.149Z,4.80
2024-02-27T09:46:32.688Z,4.92
2024-02-27T09:49:01.187Z,5.16
2024-02-27T09:51:28.989Z,5.31
2024-02-27T09:53:57.158Z,5.25
2024-02-27T09:56:24.937Z,5.67
2024-02-27T09:58:51.832Z,5.87
2024-02-27T10:01:18.862Z,6.22
2024-02-27T10:03:45.935Z,5.89
2024-02-27T10:06:15.870Z,5.85
2024-02-27T10:08:48.587Z,5.53
2024-02-27T10:11:14.999Z,5.44
2024-02-27T10:13:41.445Z,5.61
2024-02-27T10:16:08.112Z,5.90
2024-02-27T10:18:34.897Z,6.48
2024-02-27T10:21:01.530Z,6.50
2024-02-27T10:23:29.090Z,6.72
2024-02-27T10:26:07.674Z,7.06
2024-02-27T10:28:34.862Z,7.10
2024-02-27T10:31:05.305Z,7.37
2024-02-27T10:33:34.639Z,7.40
2024-02-27T10:36:02.405Z,7.44
2024-02-27T10:38:28.999Z,8.23
2024-02-27T10:41:00.669Z,10.25
2024-02-27T10:43:27.459Z,10.34
2024-02-27T10:45:57.086Z,10.88
2024-02-27T10:48:29.492Z,12.02
2024-02-27T10:51:01.350Z,12.68
2024-02-27T10:53:29.324Z,14.01
2024-02-27T10:55:56.832Z,15.16
2024-02-27T10:58:26.866Z,16.29
2024-02-27T11:00:53.603Z,16.44
2024-02-27T11:03:22.714Z,16.49
2024-02-27T11:05:49.757Z,14.91
2024-02-27T11:08:17.099Z,13.39
2024-02-27T11:10:44.129Z,12.60
2024-02-27T11:13:14.175Z,13.33
2024-02-27T11:15:43.140Z,15.41
2024-02-27T11:18:12.101Z,16.27
2024-02-27T11:20:42.353Z,15.05
2024-02-27T11:23:08.849Z,13.70
2024-02-27T11:25:35.914Z,15.47
2024-02-27T11:28:02.801Z,17.48
2024-02-27T11:30:30.633Z,18.21
2024-02-27T11:32:57.800Z,18.98
2024-02-27T11:35:24.355Z,20.43
2024-02-27T11:37:51.173Z,19.86
2024-02-27T11:40:50.404Z,21.02
2024-02-27T11:43:22.997Z,21.03
2024-02-27T11:45:49.745Z,19.38
2024-02-27T11:48:16.625Z,20.24
2024-02-27T11:50:43.038Z,20.58
2024-02-27T11:53:19.038Z,19.98
2024-02-27T11:55:47.349Z,20.53
2024-02-27T11:58:20.727Z,21.13
2024-02-27T12:00:48.455Z,21.18
2024-02-27T12:03:15.282Z,21.36
2024-02-27T12:05:41.928Z,21.76
2024-02-27T12:08:08.489Z,21.02
2024-02-27T12:10:38.260Z,21.13
2024-02-27T12:13:04.801Z,21.00
2024-02-27T12:15:31.323Z,20.52
2024-02-27T12:18:01.196Z,21.03
2024-02-27T12:20:27.800Z,21.02
2024-02-27T12:22:55.522Z,21.14
2024-02-27T12:25:21.988Z,19.84
2024-02-27T12:27:56.596Z,21.05
2024-02-27T12:30:24.673Z,21.48
2024-02-27T12:32:52.289Z,21.81
2024-02-27T12:35:18.911Z,21.09
2024-02-27T12:37:47.965Z,19.83
2024-02-27T12:40:16.439Z,20.81
2024-02-27T12:42:49.434Z,20.95
2024-02-27T12:45:17.917Z,21.20
2024-02-27T12:47:49.334Z,20.83
2024-02-27T12:50:16.897Z,20.72
2024-02-27T12:52:45.817Z,20.04
2024-02-27T12:55:16.696Z,20.91
2024-02-27T12:57:43.419Z,20.72
2024-02-27T13:00:10.730Z,20.40
2024-02-27T13:02:39.977Z,20.15
2024-02-27T13:05:07.247Z,19.44
2024-02-27T13:07:45.515Z,19.00
2024-02-27T13:10:12.036Z,19.99
2024-02-27T13:12:38.486Z,20.56
2024-02-27T13:15:07.946Z,20.99
2024-02-27T13:17:34.543Z,19.99
2024-02-27T13:20:01.018Z,19.67
2024-02-27T13:22:27.546Z,19.51
2024-02-27T13:24:56.654Z,18.32
2024-02-27T13:27:26.008Z,18.19
2024-02-27T13:29:52.482Z,17.57
2024-02-27T13:32:19.016Z,18.30
2024-02-27T13:34:48.956Z,18.96
2024-02-27T13:37:15.891Z,18.69
2024-02-27T13:39:42.536Z,18.14
2024-02-27T13:42:09.162Z,18.30
2024-02-27T13:44:35.830Z,18.59
2024-02-27T13:47:02.333Z,18.47
2024-02-27T13:49:37.654Z,18.57
2024-02-27T13:52:07.636Z,18.69
2024-02-27T13:54:34.506Z,17.67
2024-02-27T13:57:02.941Z,17.32
2024-02-27T13:59:31.324Z,17.79
2024-02-27T14:02:02.423Z,16.10
2024-02-27T14:04:35.207Z,15.19
2024-02-27T14:07:01.789Z,12.94
2024-02-27T14:09:28.437Z,12.27
2024-02-27T14:11:57.759Z,11.55
2024-02-27T14:14:24.476Z,11.19
2024-02-27T14:16:51.091Z,11.51
2024-02-27T14:19:20.385Z,12.51
2024-02-27T14:21:47.353Z,12.15
2024-02-27T14:24:13.915Z,13.12
2024-02-27T14:26:40.633Z,11.98
2024-02-27T14:29:10.176Z,12.30
2024-02-27T14:31:36.686Z,11.91
2024-02-27T14:34:06.042Z,11.36
2024-02-27T14:36:34.812Z,11.01
2024-02-27T14:39:04.133Z,11.11
2024-02-27T14:41:30.795Z,10.89
2024-02-27T14:43:57.272Z,10.76
2024-02-27T14:46:26.929Z,10.72
2024-02-27T14:48:53.832Z,10.36
2024-02-27T14:51:20.730Z,10.34
2024-02-27T14:53:48.633Z,10.03
2024-02-27T14:56:18.584Z,10.17
2024-02-27T14:58:45.125Z,9.55
2024-02-27T15:01:11.830Z,9.43
2024-02-27T15:03:38.458Z,9.52
2024-02-27T15:06:05.805Z,8.96
2024-02-27T15:08:32.347Z,8.92
2024-02-27T15:11:03.577Z,8.35
2024-02-27T15:13:30.209Z,8.28
2024-02-27T15:15:56.883Z,8.26
2024-02-27T15:18:23.645Z,7.73
2024-02-27T15:20:50.433Z,7.63
2024-02-27T15:23:16.972Z,7.98
2024-02-27T15:25:43.826Z,7.86
2024-02-27T15:28:10.295Z,7.97
2024-02-27T15:30:36.798Z,8.17
2024-02-27T15:33:06.415Z,8.40
2024-02-27T15:35:32.873Z,8.07
2024-02-27T15:37:59.267Z,8.09
2024-02-27T15:40:27.994Z,7.85
2024-02-27T15:42:54.472Z,7.50
2024-02-27T15:45:21.060Z,7.52
2024-02-27T15:47:47.886Z,7.52
2024-02-27T15:50:14.319Z,7.22
2024-02-27T15:52:40.855Z,7.22
2024-02-27T15:55:07.604Z,6.97
2024-02-27T15:57:34.234Z,7.13
2024-02-27T16:00:00.672Z,6.92
2024-02-27T16:02:27.845Z,6.51
2024-02-27T16:05:01.425Z,6.06
2024-02-27T16:07:39.700Z,6.21
2024-02-27T16:10:08.933Z,5.83
2024-02-27T16:12:37.982Z,6.02
2024-02-27T16:15:07.546Z,5.92
2024-02-27T16:17:39.899Z,5.90
2024-02-27T16:20:07.359Z,5.73
2024-02-27T16:22:34.304Z,5.85
2024-02-27T16:25:00.904Z,5.78
2024-02-27T16:27:27.648Z,5.40
2024-02-27T16:29:57.065Z,5.40
2024-02-27T16:32:35.513Z,5.25
2024-02-27T16:35:04.472Z,5.28
2024-02-27T16:37:30.914Z,5.29
2024-02-27T16:40:00.546Z,5.22
2024-02-27T16:42:27.086Z,5.23
2024-02-27T16:44:53.577Z,5.31
2024-02-27T16:47:22.354Z,5.00
2024-02-27T16:49:49.113Z,4.89
2024-02-27T16:52:15.657Z,4.64
2024-02-27T16:54:44.812Z,4.63
2024-02-27T16:57:11.222Z,4.59
2024-02-27T16:59:37.713Z,4.52
2024-02-27T17:02:05.426Z,4.58
2024-02-27T17:04:31.930Z,4.31
2024-02-27T17:06:58.589Z,4.42
2024-02-27T17:09:25.137Z,4.23
2024-02-27T17:11:51.675Z,4.02
2024-02-27T17:14:21.337Z,3.96
2024-02-27T17:16:47.953Z,4.09
2024-02-27T17:19:14.658Z,3.81
2024-02-27T17:21:41.366Z,3.86
2024-02-27T17:24:07.885Z,3.85
2024-02-27T17:26:34.406Z,3.66
2024-02-27T17:29:00.947Z,3.61
2024-02-27T17:31:29.723Z,3.50
2024-02-27T17:33:56.350Z,3.37
2024-02-27T17:36:22.935Z,3.44
2024-02-27T17:38:51.844Z,3.25
2024-02-27T17:41:18.351Z,3.26
2024-02-27T17:43:44.720Z,3.13
2024-02-27T17:46:13.668Z,3.07
2024-02-27T17:48:40.332Z,2.94
2024-02-27T17:51:07.045Z,2.94
2024-02-27T17:53:33.643Z,2.75
2024-02-27T17:56:00.158Z,2.84
2024-02-27T17:58:26.685Z,2.78
2024-02-27T18:00:53.231Z,2.67
2024-02-27T18:03:19.962Z,2.58
2024-02-27T18:05:46.708Z,2.47
2024-02-27T18:08:13.423Z,2.51
2024-02-27T18:10:40.067Z,2.40
2024-02-27T18:13:12.177Z,2.23
2024-02-27T18:15:38.822Z,2.21
2024-02-27T18:18:05.933Z,2.08
2024-02-27T18:20:32.885Z,2.30
2024-02-27T18:22:59.490Z,2.08
2024-02-27T18:25:27.743Z,1.93
2024-02-27T18:27:54.280Z,2.17
2024-02-27T18:30:20.857Z,2.08
2024-02-27T18:32:47.980Z,2.05
2024-02-27T18:35:14.621Z,2.26
2024-02-27T18:37:41.098Z,2.16
2024-02-27T18:40:16.555Z,2.30
2024-02-27T18:42:43.385Z,1.96
2024-02-27T18:45:12.527Z,2.00
2024-02-27T18:47:39.258Z,1.88
2024-02-27T18:50:06.445Z,1.82
2024-02-27T18:52:32.974Z,1.77
2024-02-27T18:54:59.593Z,1.69
2024-02-27T18:57:26.161Z,1.90
2024-02-27T18:59:52.721Z,1.91
2024-02-27T19:02:21.217Z,1.87
2024-02-27T19:04:47.792Z,1.62
2024-02-27T19:07:14.435Z,1.48
2024-02-27T19:09:41.289Z,1.52
2024-02-27T19:12:08.572Z,1.67
2024-02-27T19:14:35.441Z,1.73
2024-02-27T19:17:12.123Z,1.53
2024-02-27T19:19:38.841Z,1.57
2024-02-27T19:22:12.522Z,1.58
2024-02-27T19:24:39.277Z,1.39
2024-02-27T19:27:13.529Z,1.38
2024-02-27T19:29:43.069Z,1.45
2024-02-27T19:32:09.657Z,1.58
2024-02-27T19:34:39.461Z,1.68
2024-02-27T19:37:08.578Z,1.45
2024-02-27T19:39:35.124Z,1.79
2024-02-27T19:42:03.317Z,1.52
2024-02-27T19:44:29.945Z,1.43
2024-02-27T19:46:57.482Z,1.41
2024-02-27T19:49:24.199Z,1.36
2024-02-27T19:52:01.093Z,1.23
2024-02-27T19:54:27.735Z,1.37
2024-02-27T19:56:55.394Z,1.51
2024-02-27T19:59:22.022Z,1.37
2024-02-27T20:01:50.697Z,1.19
2024-02-27T20:04:17.286Z,1.14
2024-02-27T20:06:48.060Z,1.18
2024-02-27T20:09:14.875Z,1.18
2024-02-27T20:11:41.779Z,1.25
2024-02-27T20:14:12.487Z,0.90
2024-02-27T20:16:47.802Z,0.86
2024-02-27T20:19:15.483Z,1.29
2024-02-27T20:21:42.250Z,1.05
2024-02-27T20:24:09.093Z,1.07
2024-02-27T20:26:41.507Z,1.13
2024-02-27T20:29:10.300Z,1.02
2024-02-27T20:31:36.862Z,1.04
2024-02-27T20:34:05.209Z,1.14
2024-02-27T20:36:34.583Z,0.95
2024-02-27T20:39:06.032Z,0.86
2024-02-27T20:41:32.550Z,0.93
2024-02-27T20:44:01.795Z,1.21
2024-02-27T20:46:28.395Z,1.18
2024-02-27T20:48:59.608Z,1.23
2024-02-27T20:51:26.226Z,1.11
2024-02-27T20:53:52.718Z,1.35
2024-02-27T20:56:21.357Z,1.38
2024-02-27T20:58:47.816Z,1.25
2024-02-27T21:01:17.357Z,1.31
2024-02-27T21:03:43.926Z,1.22
2024-02-27T21:06:14.645Z,1.21
2024-02-27T21:08:47.087Z,1.20
2024-02-27T21:11:13.654Z,1.18
2024-02-27T21:13:40.256Z,1.17
2024-02-27T21:16:06.800Z,1.03
2024-02-27T21:18:33.638Z,1.28
2024-02-27T21:21:00.063Z,1.28
2024-02-27T21:23:26.503Z,1.19
2024-02-27T21:25:52.956Z,1.25
2024-02-27T21:28:21.997Z,1.23
2024-02-27T21:30:48.528Z,1.17
2024-02-27T21:33:18.189Z,1.26
2024-02-27T21:35:45.000Z,1.31
2024-02-27T21:38:11.571Z,1.24
2024-02-27T21:40:37.982Z,1.17
2024-02-27T21:43:04.663Z,1.02
2024-02-27T21:45:31.168Z,1.05
2024-02-27T21:47:57.671Z,1.00
2024-02-27T21:50:29.405Z,1.03
2024-02-27T21:52:58.048Z,1.06
2024-02-27T21:55:24.522Z,0.99
2024-02-27T21:57:53.219Z,1.06
2024-02-27T22:00:24.950Z,1.18
2024-02-27T22:02:56.539Z,1.24
2024-02-27T22:05:25.685Z,0.84
2024-02-27T22:07:54.715Z,0.91
2024-02-27T22:10:21.230Z,0.98
2024-02-27T22:12:47.779Z,0.82
2024-02-27T22:15:14.412Z,1.02
2024-02-27T22:17:40.942Z,1.04
2024-02-27T22:20:07.971Z,1.17
2024-02-27T22:22:37.257Z,0.86
2024-02-27T22:25:03.921Z,1.07
2024-02-27T22:27:30.291Z,0.98
2024-02-27T22:29:56.756Z,1.08
2024-02-27T22:32:23.137Z,1.08
2024-02-27T22:34:50.814Z,1.01
2024-02-27T22:37:17.562Z,0.99
2024-02-27T22:39:44.014Z,0.93
2024-02-27T22:42:10.555Z,1.02
2024-02-27T22:44:37.158Z,1.04
2024-02-27T22:47:03.643Z,0.87
2024-02-27T22:49:33.115Z,1.08
2024-02-27T22:51:59.778Z,1.04
2024-02-27T22:54:29.491Z,1.09
2024-02-27T22:56:56.049Z,1.04
2024-02-27T22:59:24.404Z,1.07
2024-02-27T23:01:50.945Z,1.05
2024-02-27T23:04:17.478Z,0.97
2024-02-27T23:06:44.193Z,1.03
2024-02-27T23:09:10.842Z,1.04
2024-02-27T23:11:37.344Z,1.13
2024-02-27T23:14:03.869Z,1.00
2024-02-27T23:16:30.207Z,1.00
2024-02-27T23:18:56.652Z,1.03
2024-02-27T23:21:23.125Z,1.19
2024-02-27T23:23:49.598Z,1.14
2024-02-27T23:26:15.996Z,1.20
2024-02-27T23:28:42.388Z,1.23
2024-02-27T23:31:08.773Z,1.24
2024-02-27T23:33:35.403Z,1.11
2024-02-27T23:36:02.090Z,1.11
2024-02-27T23:38:30.321Z,1.06
2024-02-27T23:40:56.751Z,1.24
2024-02-27T23:43:23.349Z,1.10
2024-02-27T23:45:50.068Z,1.25
2024-02-27T23:48:16.839Z,1.15
2024-02-27T23:50:43.473Z,1.21
2024-02-27T23:53:09.839Z,1.15
2024-02-27T23:55:36.957Z,1.20
2024-02-27T23:58:04.031Z,1.21
